Time;durP1;ratioP1;P1;durP2;ratioP2;P2;SDS_P1;SDS_P2;PMS_P1;PMS_P2;Temp;Humidity;BMP_temperature;BMP_pressure;BME280_temperature;BME280_humidity;BME280_pressure;Samples;Min_cycle;Max_cycle;Signal;HPM_P1;HPM_P2
2022/12/28 00:01:16;;;;;;;0.80;0.80;;;6.60;99.90;;;;;;6186079;23;20228;-87
2022/12/28 00:03:42;;;;;;;1.33;1.23;;;6.60;99.90;;;;;;6212427;23;20159;-87
2022/12/28 00:06:08;;;;;;;0.93;0.93;;;6.60;99.90;;;;;;6168911;23;20159;-89
2022/12/28 00:08:35;;;;;;;1.63;1.53;;;6.60;99.90;;;;;;6205331;23;20181;-87
2022/12/28 00:11:06;;;;;;;1.87;1.80;;;6.60;99.90;;;;;;6186008;23;20192;-87
2022/12/28 00:13:33;;;;;;;1.70;0.90;;;6.60;99.90;;;;;;6212399;23;20154;-87
2022/12/28 00:16:15;;;;;;;1.90;1.77;;;6.60;99.90;;;;;;6212571;23;20181;-89
2022/12/28 00:18:40;;;;;;;1.27;1.20;;;6.70;99.90;;;;;;6185556;23;20184;-87
2022/12/28 00:21:06;;;;;;;2.43;2.03;;;6.70;99.90;;;;;;6186070;23;20708;-91
2022/12/28 00:23:32;;;;;;;3.60;0.90;;;6.70;99.90;;;;;;6160695;23;20185;-86
2022/12/28 00:26:06;;;;;;;2.50;1.70;;;6.70;99.90;;;;;;6184492;23;20165;-92
2022/12/28 00:28:32;;;;;;;2.23;2.03;;;6.70;99.90;;;;;;6210106;23;20174;-85
2022/12/28 00:30:58;;;;;;;1.00;1.00;;;6.70;99.90;;;;;;6184354;23;20170;-86
2022/12/28 00:33:24;;;;;;;0.83;0.83;;;6.70;99.90;;;;;;6210661;23;20724;-91
2022/12/28 00:35:57;;;;;;;5.07;1.93;;;6.70;99.90;;;;;;6184221;23;20685;-90
2022/12/28 00:38:23;;;;;;;1.00;0.90;;;6.70;99.90;;;;;;6184965;23;20174;-87
2022/12/28 00:40:49;;;;;;;1.30;1.20;;;6.70;99.90;;;;;;6185675;23;20154;-90
2022/12/28 00:43:15;;;;;;;1.47;1.37;;;6.70;99.90;;;;;;6211528;23;20150;-88
2022/12/28 00:45:45;;;;;;;1.23;1.23;;;6.70;99.90;;;;;;6185704;23;20158;-85
2022/12/28 00:48:14;;;;;;;2.73;2.07;;;6.70;99.90;;;;;;6212166;23;20245;-86
2022/12/28 00:50:41;;;;;;;0.80;0.80;;;6.70;99.90;;;;;;6212349;23;20189;-86
2022/12/28 00:53:07;;;;;;;0.93;0.53;;;6.70;99.90;;;;;;6211791;23;20154;-88
2022/12/28 00:55:34;;;;;;;1.37;1.27;;;6.70;99.90;;;;;;6160905;23;20392;-90
2022/12/28 00:58:01;;;;;;;4.47;1.97;;;6.70;99.90;;;;;;6184169;23;20237;-86
2022/12/28 01:00:27;;;;;;;1.60;1.50;;;6.70;99.90;;;;;;6210081;23;20150;-88
2022/12/28 01:02:54;;;;;;;1.40;1.33;;;6.70;99.90;;;;;;6184800;23;20237;-88
2022/12/28 01:05:21;;;;;;;2.77;2.57;;;6.70;99.90;;;;;;6210605;23;20154;-88
2022/12/28 01:07:47;;;;;;;0.87;0.67;;;6.70;99.90;;;;;;6183953;23;20178;-89
2022/12/28 01:10:12;;;;;;;1.43;1.43;;;6.70;99.90;;;;;;6185301;23;20702;-89
2022/12/28 01:12:38;;;;;;;1.63;1.53;;;6.70;99.90;;;;;;6184921;23;20581;-85
2022/12/28 01:15:06;;;;;;;1.47;1.37;;;6.70;99.90;;;;;;6185319;23;20177;-85
2022/12/28 01:17:32;;;;;;;1.33;1.23;;;6.70;99.90;;;;;;6161264;23;20162;-88
2022/12/28 01:19:59;;;;;;;2.77;1.00;;;6.70;99.90;;;;;;6160629;23;20656;-87
2022/12/28 01:22:27;;;;;;;0.63;0.63;;;6.70;99.90;;;;;;6185671;23;20161;-86
2022/12/28 01:24:53;;;;;;;1.83;1.37;;;6.80;99.90;;;;;;6184402;23;20163;-85
2022/12/28 01:27:19;;;;;;;1.40;1.30;;;6.80;99.90;;;;;;6210909;23;20159;-91
2022/12/28 01:29:45;;;;;;;1.10;0.93;;;6.80;99.90;;;;;;6135536;23;20204;-89
2022/12/28 01:32:11;;;;;;;4.13;1.93;;;6.80;99.90;;;;;;6212270;23;20158;-90
2022/12/28 01:34:36;;;;;;;2.77;2.60;;;6.80;99.90;;;;;;6185478;23;20247;-86
2022/12/28 01:37:02;;;;;;;2.10;2.00;;;6.90;99.90;;;;;;6185490;23;20586;-86
2022/12/28 01:39:28;;;;;;;1.33;1.13;;;6.90;99.90;;;;;;6185431;23;20614;-88
2022/12/28 01:41:54;;;;;;;3.03;2.10;;;6.90;99.90;;;;;;6184386;23;20169;-89
2022/12/28 01:44:23;;;;;;;3.07;1.53;;;6.90;99.90;;;;;;6210718;23;20165;-91
2022/12/28 01:46:54;;;;;;;2.30;2.07;;;6.90;99.90;;;;;;6210910;23;20155;-92
2022/12/28 01:49:25;;;;;;;2.10;1.97;;;6.90;99.90;;;;;;6184751;23;20174;-90
2022/12/28 01:52:18;;;;;;;5.03;2.30;;;6.90;99.90;;;;;;6211432;23;20147;-86
2022/12/28 01:54:47;;;;;;;2.50;1.73;;;6.90;99.90;;;;;;6212271;23;20146;-91
2022/12/28 01:57:14;;;;;;;1.40;1.33;;;6.90;99.90;;;;;;6187105;23;20181;-86
2022/12/28 01:59:48;;;;;;;2.00;1.10;;;6.90;99.90;;;;;;6187187;23;20162;-88
2022/12/28 02:02:14;;;;;;;0.90;0.90;;;6.90;99.90;;;;;;6187556;23;20147;-88
2022/12/28 02:04:40;;;;;;;1.03;1.03;;;6.90;99.90;;;;;;6187186;23;20182;-87
2022/12/28 02:07:06;;;;;;;1.30;1.23;;;6.90;99.90;;;;;;6213223;23;20723;-93
2022/12/28 02:09:39;;;;;;;2.57;2.40;;;6.90;99.90;;;;;;6162342;23;20185;-86
2022/12/28 02:12:12;;;;;;;2.13;1.90;;;6.90;99.90;;;;;;6213303;23;20178;-89
2022/12/28 02:14:39;;;;;;;1.63;1.53;;;6.90;99.90;;;;;;6213483;23;20147;-87
2022/12/28 02:17:10;;;;;;;2.63;2.53;;;6.90;99.90;;;;;;6186660;23;20154;-88
2022/12/28 02:19:46;;;;;;;2.17;2.03;;;6.90;99.90;;;;;;6186743;23;20157;-87
2022/12/28 02:22:39;;;;;;;2.27;2.07;;;6.90;99.90;;;;;;6187341;23;20169;-90
2022/12/28 02:25:22;;;;;;;3.83;2.37;;;6.90;99.90;;;;;;6213596;23;20169;-88
2022/12/28 02:28:12;;;;;;;2.30;2.07;;;6.90;99.90;;;;;;6213269;23;20782;-91
2022/12/28 02:31:01;;;;;;;2.60;2.40;;;6.90;99.90;;;;;;6186485;23;20242;-93
2022/12/28 02:33:37;;;;;;;2.37;1.60;;;7.00;99.90;;;;;;6213169;23;20146;-93
2022/12/28 02:36:27;;;;;;;2.40;2.20;;;7.00;99.90;;;;;;6213272;23;20176;-91
2022/12/28 02:38:58;;;;;;;1.67;1.57;;;7.00;99.90;;;;;;6186851;23;20170;-90
2022/12/28 02:41:25;;;;;;;2.23;2.03;;;7.00;99.90;;;;;;6211465;23;20248;-87
2022/12/28 02:43:52;;;;;;;1.13;1.03;;;7.00;99.90;;;;;;6186882;23;20160;-91
2022/12/28 02:52:15;;;;;;;2.93;1.63;;;7.00;99.90;;;;;;6215445;23;20204;-92
2022/12/28 02:56:06;;;;;;;2.03;1.53;;;7.00;99.90;;;;;;6215093;23;20212;-86
2022/12/28 02:59:16;;;;;;;1.77;1.67;;;7.00;99.90;;;;;;6083038;23;20252;-88
2022/12/28 03:02:18;;;;;;;0.90;0.90;;;7.00;99.90;;;;;;6126733;23;20168;-88
2022/12/28 03:05:01;;;;;;;1.57;1.47;;;7.10;99.90;;;;;;6187955;23;20154;-89
2022/12/28 03:11:00;;;;;;;4.30;2.60;;;7.10;99.90;;;;;;6215564;23;20181;-87
2022/12/28 03:13:42;;;;;;;2.53;2.33;;;7.10;99.90;;;;;;6189116;23;20586;-86
2022/12/28 03:16:20;;;;;;;1.40;1.30;;;7.10;99.90;;;;;;6215514;23;20147;-87
2022/12/28 03:32:52;;;;;;;2.03;1.90;;;7.20;99.90;;;;;;6215797;23;20150;-88
2022/12/28 03:35:21;;;;;;;4.40;1.70;;;7.20;99.90;;;;;;6215978;23;20186;-90
2022/12/28 03:37:55;;;;;;;4.00;2.20;;;7.20;99.90;;;;;;6215579;23;20214;-87
2022/12/28 03:40:48;;;;;;;1.30;1.00;;;7.20;99.90;;;;;;6216373;23;20249;-89
2022/12/28 03:43:42;;;;;;;2.83;2.47;;;7.20;99.90;;;;;;6215645;23;20468;-88
2022/12/28 03:46:11;;;;;;;5.03;2.20;;;7.20;99.90;;;;;;6215144;23;20173;-88
2022/12/28 03:48:37;;;;;;;1.43;1.33;;;7.20;99.90;;;;;;6189550;23;20182;-89
2022/12/28 03:51:03;;;;;;;0.47;0.47;;;7.30;99.90;;;;;;6215914;23;20216;-88
2022/12/28 03:53:44;;;;;;;3.33;2.40;;;7.20;99.90;;;;;;6215753;23;20162;-89
2022/12/28 03:56:13;;;;;;;2.10;2.00;;;7.30;99.90;;;;;;6189761;23;20146;-87
2022/12/28 03:58:38;;;;;;;4.17;3.07;;;7.30;99.90;;;;;;6189584;23;20162;-91
2022/12/28 04:01:04;;;;;;;1.90;1.80;;;7.30;99.90;;;;;;6189613;23;20608;-88
2022/12/28 04:03:30;;;;;;;2.10;1.90;;;7.30;99.90;;;;;;6189059;23;20245;-89
2022/12/28 04:05:59;;;;;;;3.63;2.07;;;7.40;99.90;;;;;;6214907;23;20181;-88
2022/12/28 04:08:26;;;;;;;1.70;1.60;;;7.40;99.90;;;;;;6214853;23;20185;-88
2022/12/28 04:10:52;;;;;;;1.50;1.40;;;7.40;99.90;;;;;;6214543;23;20652;-87
2022/12/28 04:13:17;;;;;;;1.63;1.53;;;7.40;99.90;;;;;;6189252;23;20157;-90
2022/12/28 04:15:43;;;;;;;3.73;2.27;;;7.50;99.90;;;;;;6189414;23;20154;-88
2022/12/28 04:18:09;;;;;;;0.80;0.80;;;7.50;99.90;;;;;;6163920;23;20193;-90
2022/12/28 04:20:35;;;;;;;1.53;1.43;;;7.60;99.90;;;;;;6189624;23;20333;-87
2022/12/28 04:23:00;;;;;;;1.80;1.30;;;7.70;99.90;;;;;;6164300;23;20166;-88
2022/12/28 04:25:26;;;;;;;2.67;2.43;;;7.80;99.90;;;;;;6189064;23;20220;-88
2022/12/28 04:27:52;;;;;;;1.03;0.93;;;7.90;99.90;;;;;;6188961;23;20265;-88
2022/12/28 04:30:18;;;;;;;1.73;1.63;;;8.00;99.90;;;;;;6187454;23;20166;-88
2022/12/28 04:32:44;;;;;;;2.60;1.73;;;8.00;99.90;;;;;;6163945;23;20241;-87
2022/12/28 04:35:09;;;;;;;1.90;1.80;;;8.00;99.90;;;;;;6215681;23;20158;-87
2022/12/28 04:37:36;;;;;;;4.73;2.27;;;8.10;99.90;;;;;;6163977;23;20168;-89
2022/12/28 04:40:02;;;;;;;1.63;1.17;;;8.10;99.90;;;;;;6163996;23;20173;-86
2022/12/28 04:42:28;;;;;;;0.67;0.67;;;8.20;99.90;;;;;;6189052;23;20178;-87
2022/12/28 04:44:53;;;;;;;1.57;1.20;;;8.20;99.90;;;;;;6188816;23;20452;-86
2022/12/28 04:47:19;;;;;;;2.60;2.03;;;8.20;99.90;;;;;;6139965;23;20249;-89
2022/12/28 04:49:45;;;;;;;2.27;2.07;;;8.20;99.90;;;;;;6189704;23;20198;-89
2022/12/28 04:52:11;;;;;;;1.87;1.77;;;8.30;99.90;;;;;;6215525;23;20560;-87
2022/12/28 04:54:37;;;;;;;1.87;1.17;;;8.30;99.90;;;;;;6215712;23;20209;-88
2022/12/28 04:57:03;;;;;;;0.97;0.97;;;8.40;99.90;;;;;;6188789;23;20481;-87
2022/12/28 04:59:29;;;;;;;1.50;1.40;;;8.40;99.90;;;;;;6189644;23;20462;-87
2022/12/28 05:01:54;;;;;;;2.07;1.97;;;8.40;99.90;;;;;;6215464;23;20233;-87
2022/12/28 05:04:20;;;;;;;1.67;1.57;;;8.40;99.90;;;;;;6189774;23;20159;-86
2022/12/28 05:06:46;;;;;;;1.00;0.83;;;8.50;99.90;;;;;;6215879;23;20605;-89
2022/12/28 05:09:12;;;;;;;3.50;2.00;;;8.60;99.90;;;;;;6164687;23;20617;-87
2022/12/28 05:11:37;;;;;;;1.50;1.40;;;8.60;99.90;;;;;;6189952;23;20466;-87
2022/12/28 05:14:03;;;;;;;1.83;1.70;;;8.60;99.90;;;;;;6164579;23;20518;-89
2022/12/28 05:16:29;;;;;;;1.00;1.00;;;8.70;99.90;;;;;;6188996;23;20578;-91
2022/12/28 05:18:56;;;;;;;0.83;0.50;;;8.70;99.90;;;;;;6188868;23;20242;-86
2022/12/28 05:21:24;;;;;;;1.90;0.70;;;8.80;99.90;;;;;;6188952;23;20205;-87
2022/12/28 05:23:50;;;;;;;0.80;0.80;;;8.80;99.90;;;;;;6188422;23;20702;-87
2022/12/28 05:26:18;;;;;;;3.50;1.77;;;8.80;99.90;;;;;;6188883;23;20364;-88
2022/12/28 05:28:44;;;;;;;0.47;0.47;;;8.90;99.90;;;;;;6188733;23;20276;-88
2022/12/28 05:31:17;;;;;;;0.53;0.53;;;8.90;99.90;;;;;;6191003;23;20585;-87
2022/12/28 05:33:43;;;;;;;0.43;0.43;;;9.00;99.90;;;;;;6191475;23;20153;-86
2022/12/28 05:36:14;;;;;;;1.00;0.77;;;9.00;99.90;;;;;;6217417;23;20150;-86
2022/12/28 05:38:41;;;;;;;2.10;2.00;;;9.10;99.90;;;;;;6217288;23;20608;-87
2022/12/28 05:44:47;;;;;;;2.87;2.67;;;9.10;99.90;;;;;;6217327;23;20188;-88
2022/12/28 05:47:13;;;;;;;2.00;1.90;;;9.20;99.90;;;;;;6166291;23;20194;-87
2022/12/28 05:49:39;;;;;;;1.40;1.40;;;9.20;99.90;;;;;;6190449;23;20216;-88
2022/12/28 05:52:04;;;;;;;0.93;0.77;;;9.10;99.90;;;;;;6165453;23;20209;-87
2022/12/28 05:54:30;;;;;;;4.33;1.30;;;9.10;99.90;;;;;;6190264;23;20169;-86
2022/12/28 05:56:56;;;;;;;0.77;0.70;;;9.20;99.90;;;;;;6141650;23;20609;-87
2022/12/28 05:59:22;;;;;;;0.67;0.67;;;9.20;99.90;;;;;;6216276;23;20202;-87
2022/12/28 06:01:47;;;;;;;0.90;0.90;;;9.30;99.90;;;;;;6215960;23;20194;-87
2022/12/28 06:04:16;;;;;;;1.23;0.90;;;9.30;99.90;;;;;;6188835;23;20641;-86
2022/12/28 06:06:43;;;;;;;2.53;1.57;;;9.30;99.90;;;;;;6188769;23;20185;-88
2022/12/28 06:09:09;;;;;;;0.67;0.50;;;9.30;99.90;;;;;;6216012;23;20178;-87
2022/12/28 06:11:34;;;;;;;1.30;1.07;;;9.40;99.90;;;;;;6215415;23;20201;-89
2022/12/28 06:14:02;;;;;;;0.60;0.60;;;9.40;99.90;;;;;;6189324;23;20251;-91
2022/12/28 06:16:31;;;;;;;21.03;1.03;;;9.40;99.90;;;;;;6189088;23;20201;-87
2022/12/28 06:18:57;;;;;;;0.90;0.67;;;9.40;99.90;;;;;;6216352;23;20319;-88
2022/12/28 06:21:26;;;;;;;0.57;0.57;;;9.40;99.90;;;;;;6164472;23;20162;-89
2022/12/28 06:23:56;;;;;;;0.30;0.30;;;9.40;99.90;;;;;;6190012;23;20157;-92
2022/12/28 06:26:22;;;;;;;0.50;0.50;;;9.40;99.90;;;;;;6187751;23;20198;-89
2022/12/28 06:28:49;;;;;;;0.60;0.60;;;9.40;99.90;;;;;;6214703;23;20198;-88
2022/12/28 06:31:20;;;;;;;1.20;1.20;;;9.40;99.90;;;;;;6188830;23;20693;-86
2022/12/28 06:33:48;;;;;;;6.40;1.23;;;9.40;99.90;;;;;;6188907;23;20342;-87
2022/12/28 06:36:41;;;;;;;1.90;1.70;;;9.30;99.90;;;;;;6164707;23;20158;-91
2022/12/28 06:39:09;;;;;;;2.40;0.83;;;9.30;99.90;;;;;;6179758;23;20194;-88
2022/12/28 06:41:36;;;;;;;1.37;1.30;;;9.40;99.90;;;;;;6214849;23;20190;-86
2022/12/28 06:44:05;;;;;;;3.10;2.77;;;9.30;99.90;;;;;;6189446;23;20506;-87
2022/12/28 06:46:31;;;;;;;6.13;1.10;;;9.40;99.90;;;;;;6187623;23;20794;-90
2022/12/28 06:48:57;;;;;;;1.80;1.70;;;9.40;99.90;;;;;;6187457;23;20198;-89
2022/12/28 06:51:25;;;;;;;0.83;0.70;;;9.40;99.90;;;;;;6188761;23;20166;-89
2022/12/28 06:53:53;;;;;;;1.63;1.07;;;9.40;99.90;;;;;;6216398;23;20159;-88
2022/12/28 06:56:30;;;;;;;2.33;2.13;;;9.50;99.90;;;;;;6173500;23;20673;-88
2022/12/28 06:58:56;;;;;;;1.73;1.63;;;9.50;99.90;;;;;;6187227;23;20244;-88
2022/12/28 07:01:25;;;;;;;2.27;1.70;;;9.50;99.90;;;;;;6186538;23;20521;-91
2022/12/28 07:03:53;;;;;;;2.30;2.13;;;9.60;99.90;;;;;;6185879;23;20190;-92
2022/12/28 07:06:21;;;;;;;1.53;0.90;;;9.60;99.90;;;;;;6187714;23;20154;-88
2022/12/28 07:08:48;;;;;;;3.83;1.47;;;9.60;99.90;;;;;;6186550;23;20178;-86
2022/12/28 07:11:19;;;;;;;5.93;3.83;;;9.60;99.90;;;;;;6187855;23;20222;-89
2022/12/28 07:13:45;;;;;;;1.23;1.07;;;9.60;99.90;;;;;;6214450;23;20198;-93
2022/12/28 07:16:13;;;;;;;1.83;1.63;;;9.70;99.90;;;;;;6211464;23;20346;-88
2022/12/28 07:18:40;;;;;;;2.03;1.90;;;9.70;99.90;;;;;;6183980;23;20209;-94
2022/12/28 07:21:20;;;;;;;0.97;0.97;;;9.70;99.90;;;;;;6187080;23;20146;-93
2022/12/28 07:23:48;;;;;;;5.17;2.50;;;9.70;99.90;;;;;;6186514;23;20205;-87
2022/12/28 07:26:21;;;;;;;1.03;0.93;;;9.80;99.90;;;;;;6215078;23;20724;-86
2022/12/28 07:28:49;;;;;;;1.87;0.80;;;9.80;99.90;;;;;;6188294;23;20204;-89
2022/12/28 07:31:20;;;;;;;1.57;1.47;;;9.80;99.90;;;;;;6188442;23;20157;-86
2022/12/28 07:33:49;;;;;;;1.17;1.17;;;9.80;99.90;;;;;;6212621;23;20190;-92
2022/12/28 07:36:17;;;;;;;1.43;0.80;;;9.80;99.90;;;;;;6188983;23;20158;-87
2022/12/28 07:38:43;;;;;;;2.00;1.90;;;9.70;99.90;;;;;;6188038;23;20198;-89
2022/12/28 07:41:13;;;;;;;5.70;0.60;;;9.50;99.90;;;;;;6187987;23;20206;-89
2022/12/28 07:43:39;;;;;;;1.07;0.87;;;9.40;99.90;;;;;;6186891;23;20194;-92
2022/12/28 07:46:17;;;;;;;4.20;1.13;;;9.40;99.90;;;;;;6184005;23;20196;-90
2022/12/28 07:48:43;;;;;;;6.47;1.70;;;9.20;99.90;;;;;;6173714;23;20236;-89
2022/12/28 07:51:15;;;;;;;0.20;0.20;;;9.20;99.90;;;;;;6183624;23;20153;-89
2022/12/28 07:53:42;;;;;;;0.90;0.90;;;9.20;99.90;;;;;;6210879;23;20214;-87
2022/12/28 07:56:09;;;;;;;0.80;0.80;;;9.20;99.90;;;;;;6159724;23;20338;-87
2022/12/28 07:58:35;;;;;;;1.13;1.13;;;9.10;99.90;;;;;;6211117;23;20209;-88
2022/12/28 08:01:04;;;;;;;0.67;0.57;;;9.10;99.90;;;;;;6159270;23;20212;-89
2022/12/28 08:03:30;;;;;;;2.30;0.97;;;9.20;99.90;;;;;;6184034;23;20154;-89
2022/12/28 08:06:08;;;;;;;1.27;1.13;;;9.30;99.90;;;;;;6186966;23;20190;-91
2022/12/28 08:08:42;;;;;;;3.10;0.60;;;9.40;99.90;;;;;;6185937;23;20198;-89
2022/12/28 08:11:11;;;;;;;0.83;0.57;;;9.50;99.90;;;;;;6167646;23;20202;-87
2022/12/28 08:13:40;;;;;;;1.87;1.20;;;9.50;99.90;;;;;;6205061;23;20344;-87
2022/12/28 08:16:06;;;;;;;2.37;2.17;;;9.60;99.90;;;;;;6184660;23;20190;-90
2022/12/28 08:18:33;;;;;;;4.63;1.20;;;9.60;99.90;;;;;;6210912;23;20169;-90
2022/12/28 08:21:07;;;;;;;0.40;0.40;;;9.60;99.90;;;;;;6211447;23;20154;-88
2022/12/28 08:23:32;;;;;;;8.63;1.17;;;9.70;99.90;;;;;;6209390;23;20217;-89
2022/12/28 08:26:35;;;;;;;3.50;1.47;;;9.70;99.90;;;;;;6158004;23;20500;-88
2022/12/28 08:29:04;;;;;;;1.20;1.10;;;9.70;99.90;;;;;;6168130;23;20232;-92
2022/12/28 08:31:36;;;;;;;10.10;2.53;;;9.70;99.90;;;;;;6194779;23;20201;-87
2022/12/28 08:34:04;;;;;;;0.83;0.73;;;9.70;99.90;;;;;;6182294;23;20268;-93
2022/12/28 08:36:30;;;;;;;6.27;0.90;;;9.60;99.90;;;;;;6210733;23;20225;-92
2022/12/28 08:38:57;;;;;;;0.93;0.90;;;9.60;99.90;;;;;;6160436;23;20177;-87
2022/12/28 08:41:24;;;;;;;0.37;0.37;;;9.60;99.90;;;;;;6183880;23;20224;-87
2022/12/28 08:43:52;;;;;;;4.00;0.60;;;9.60;99.90;;;;;;6184244;23;20248;-92
2022/12/28 08:46:26;;;;;;;1.57;0.70;;;9.70;99.90;;;;;;6184573;23;20224;-92
2022/12/28 08:48:54;;;;;;;1.03;0.70;;;9.60;99.90;;;;;;6184937;23;20264;-87
2022/12/28 08:51:33;;;;;;;1.17;1.17;;;9.60;99.90;;;;;;6184479;23;20203;-92
2022/12/28 08:54:00;;;;;;;0.27;0.10;;;9.70;99.90;;;;;;6185069;23;20629;-88
2022/12/28 08:56:30;;;;;;;6.23;1.13;;;9.70;99.90;;;;;;6184163;23;20270;-88
2022/12/28 08:58:57;;;;;;;0.97;0.50;;;9.70;99.90;;;;;;6159978;23;20200;-88
2022/12/28 09:01:25;;;;;;;1.90;0.77;;;9.70;99.90;;;;;;6210519;23;20194;-87
2022/12/28 09:03:53;;;;;;;3.10;0.70;;;9.80;99.90;;;;;;6183335;23;20186;-90
2022/12/28 09:06:22;;;;;;;0.93;0.93;;;9.70;99.90;;;;;;6183950;23;20186;-88
2022/12/28 09:08:53;;;;;;;2.43;0.67;;;9.70;99.90;;;;;;6210942;23;20177;-87
2022/12/28 09:11:19;;;;;;;0.60;0.60;;;9.70;99.90;;;;;;6159569;23;20296;-87
2022/12/28 09:13:45;;;;;;;0.47;0.47;;;9.70;99.90;;;;;;6184015;23;20642;-89
2022/12/28 09:16:14;;;;;;;0.83;0.67;;;9.70;99.90;;;;;;6183394;23;20399;-87
2022/12/28 09:18:40;;;;;;;0.40;0.40;;;9.70;99.90;;;;;;6183245;23;20186;-86
2022/12/28 09:21:15;;;;;;;0.60;0.60;;;9.70;99.90;;;;;;6184781;23;20536;-86
2022/12/28 09:23:42;;;;;;;0.27;0.27;;;9.70;99.90;;;;;;6210142;23;20193;-88
2022/12/28 09:26:12;;;;;;;0.40;0.40;;;9.70;99.90;;;;;;6159254;23;20194;-91
2022/12/28 09:28:38;;;;;;;0.20;0.20;;;9.70;99.90;;;;;;6184020;23;20209;-88
2022/12/28 09:31:06;;;;;;;0.27;0.20;;;9.70;99.90;;;;;;6210491;23;20204;-87
2022/12/28 09:36:18;;;;;;;0.67;0.33;;;9.70;99.90;;;;;;6210487;23;20147;-83
2022/12/28 09:38:48;;;;;;;0.17;0.17;;;9.60;99.90;;;;;;6184075;23;20170;-88
2022/12/28 09:41:24;;;;;;;0.40;0.40;;;9.60;99.90;;;;;;6159119;23;20186;-86
2022/12/28 09:44:04;;;;;;;0.20;0.20;;;9.70;99.90;;;;;;6210375;23;20519;-86
2022/12/28 09:46:32;;;;;;;0.30;0.30;;;9.70;99.90;;;;;;6183910;23;20189;-85
2022/12/28 09:49:02;;;;;;;0.17;0.17;;;9.70;99.90;;;;;;6183113;23;20276;-86
2022/12/28 09:51:33;;;;;;;0.40;0.40;;;9.80;99.90;;;;;;6183615;23;20150;-87
2022/12/28 09:54:03;;;;;;;3.20;0.70;;;9.80;99.90;;;;;;6210698;23;20225;-86
2022/12/28 09:56:35;;;;;;;1.20;0.90;;;9.90;99.90;;;;;;6183006;23;20186;-85
2022/12/28 09:59:04;;;;;;;9.80;1.53;;;9.90;99.90;;;;;;6183230;23;20198;-91
2022/12/28 10:01:31;;;;;;;1.00;0.90;;;9.90;99.90;;;;;;6183535;23;20240;-86
2022/12/28 10:04:00;;;;;;;1.73;1.63;;;9.90;99.90;;;;;;6159173;23;20273;-86
2022/12/28 10:06:28;;;;;;;0.50;0.50;;;9.90;99.90;;;;;;6209894;23;20154;-89
2022/12/28 10:08:57;;;;;;;1.93;0.73;;;9.80;99.90;;;;;;6184302;23;20178;-86
2022/12/28 10:11:34;;;;;;;0.57;0.57;;;9.80;99.90;;;;;;6183267;23;20223;-86
2022/12/28 10:14:10;;;;;;;0.47;0.47;;;9.80;99.90;;;;;;6210049;23;20193;-90
2022/12/28 10:16:38;;;;;;;0.50;0.50;;;9.80;99.90;;;;;;6211751;23;20250;-87
2022/12/28 10:19:06;;;;;;;0.93;0.60;;;9.90;99.90;;;;;;6160276;23;20202;-88
2022/12/28 10:21:33;;;;;;;1.13;0.30;;;10.00;99.90;;;;;;6211725;23;20465;-86
2022/12/28 10:24:00;;;;;;;0.57;0.53;;;10.00;99.90;;;;;;6186151;23;20158;-87
2022/12/28 10:26:27;;;;;;;0.50;0.47;;;10.00;99.90;;;;;;6160715;23;20198;-86
2022/12/28 10:28:57;;;;;;;0.73;0.73;;;10.10;99.90;;;;;;6160907;23;20248;-88
2022/12/28 10:31:35;;;;;;;0.47;0.47;;;10.10;99.90;;;;;;6211648;23;20189;-88
2022/12/28 10:34:10;;;;;;;0.47;0.47;;;10.20;99.90;;;;;;6185110;23;20506;-86
2022/12/28 10:36:36;;;;;;;0.37;0.37;;;10.20;99.90;;;;;;6185532;23;20142;-87
2022/12/28 10:39:02;;;;;;;0.83;0.60;;;10.20;99.90;;;;;;6185683;23;20489;-87
2022/12/28 10:41:35;;;;;;;0.50;0.50;;;10.20;99.90;;;;;;6185465;23;20194;-87
2022/12/28 10:44:20;;;;;;;0.50;0.50;;;10.20;99.90;;;;;;6170557;23;20692;-86
2022/12/28 10:47:00;;;;;;;0.50;0.40;;;10.20;99.90;;;;;;6185492;23;20313;-89
2022/12/28 10:49:30;;;;;;;0.53;0.53;;;10.20;99.90;;;;;;6185218;23;20205;-89
2022/12/28 10:52:02;;;;;;;0.47;0.47;;;10.20;99.90;;;;;;6185330;23;20190;-87
2022/12/28 10:54:32;;;;;;;0.93;0.77;;;10.20;99.90;;;;;;6211632;23;20154;-87
2022/12/28 10:57:01;;;;;;;0.83;0.50;;;10.20;99.90;;;;;;6212150;23;20237;-88
2022/12/28 10:59:29;;;;;;;1.07;0.53;;;10.20;99.90;;;;;;6211797;23;20194;-87
2022/12/28 11:02:20;;;;;;;0.67;0.67;;;10.20;99.90;;;;;;6211599;23;20828;-91
2022/12/28 11:05:00;;;;;;;1.23;0.97;;;10.10;99.90;;;;;;6211780;23;20209;-87
2022/12/28 11:07:32;;;;;;;1.57;1.23;;;10.00;99.90;;;;;;6211520;23;20190;-88
2022/12/28 11:10:19;;;;;;;1.13;1.13;;;10.00;99.90;;;;;;6211403;23;20205;-89
2022/12/28 11:12:46;;;;;;;5.20;1.80;;;10.00;99.90;;;;;;6185180;23;20194;-86
2022/12/28 11:15:21;;;;;;;3.53;1.77;;;9.90;99.90;;;;;;6212183;23;20578;-86
2022/12/28 11:17:55;;;;;;;3.70;1.60;;;9.90;99.90;;;;;;6212188;23;20783;-87
2022/12/28 11:20:33;;;;;;;2.10;1.90;;;9.90;99.90;;;;;;6211034;23;20197;-84
2022/12/28 11:23:00;;;;;;;2.17;1.97;;;10.00;99.90;;;;;;6211691;23;20194;-92
2022/12/28 11:25:30;;;;;;;4.23;1.73;;;10.00;99.90;;;;;;6186142;23;20633;-87
2022/12/28 11:27:57;;;;;;;1.60;1.43;;;10.00;99.90;;;;;;6211314;23;20212;-86
2022/12/28 11:30:23;;;;;;;3.30;1.63;;;10.00;99.90;;;;;;6212656;23;20231;-88
2022/12/28 11:32:53;;;;;;;2.27;2.07;;;10.00;99.90;;;;;;6186379;23;20388;-87
2022/12/28 11:35:27;;;;;;;3.10;2.50;;;10.00;99.90;;;;;;6212122;23;20194;-87
2022/12/28 11:37:58;;;;;;;2.77;1.40;;;10.00;99.90;;;;;;6186970;23;20196;-87
2022/12/28 11:40:51;;;;;;;3.20;2.90;;;10.00;99.90;;;;;;6162124;23;20272;-88
2022/12/28 11:43:38;;;;;;;2.83;1.97;;;10.00;99.90;;;;;;6213824;23;20190;-87
2022/12/28 11:46:19;;;;;;;2.20;2.10;;;10.00;99.90;;;;;;6187559;23;20201;-89
2022/12/28 11:49:00;;;;;;;2.03;1.83;;;10.00;99.90;;;;;;6185726;23;20227;-89
2022/12/28 11:51:34;;;;;;;1.67;1.57;;;10.00;99.90;;;;;;6211472;23;20178;-87
2022/12/28 11:54:24;;;;;;;3.43;1.30;;;10.00;99.90;;;;;;6185640;23;20162;-87
2022/12/28 11:56:50;;;;;;;4.50;2.03;;;10.00;99.90;;;;;;6212723;23;20648;-90
2022/12/28 11:59:22;;;;;;;0.77;0.77;;;10.00;99.90;;;;;;6185738;23;20235;-85
2022/12/28 12:01:50;;;;;;;3.07;2.27;;;10.00;99.90;;;;;;6185636;23;20201;-91
2022/12/28 12:04:27;;;;;;;2.17;1.80;;;10.00;99.90;;;;;;6211034;23;20272;-87
2022/12/28 12:06:53;;;;;;;2.77;1.70;;;10.00;99.90;;;;;;6211142;23;20194;-88
2022/12/28 12:09:22;;;;;;;3.67;2.20;;;10.00;99.90;;;;;;6210231;23;20580;-89
2022/12/28 12:12:02;;;;;;;4.43;2.33;;;10.00;99.90;;;;;;6183471;23;20154;-89
2022/12/28 12:14:44;;;;;;;2.10;1.90;;;10.00;99.90;;;;;;6183645;23;20207;-89
2022/12/28 12:17:32;;;;;;;3.70;2.07;;;10.00;99.90;;;;;;6198966;23;20329;-88
2022/12/28 12:20:04;;;;;;;2.40;1.80;;;10.00;99.90;;;;;;6182543;23;20296;-88
2022/12/28 12:22:39;;;;;;;1.40;1.30;;;10.00;99.90;;;;;;6211903;23;20196;-88
2022/12/28 12:25:25;;;;;;;1.90;1.53;;;10.00;99.90;;;;;;6185262;23;20193;-88
2022/12/28 12:28:13;;;;;;;1.30;1.20;;;10.00;99.90;;;;;;6183602;23;20190;-89
2022/12/28 12:30:42;;;;;;;1.30;1.20;;;10.00;99.90;;;;;;6210879;23;20273;-91
2022/12/28 12:33:23;;;;;;;1.40;1.30;;;10.00;99.90;;;;;;6186102;23;20294;-88
2022/12/28 12:36:28;;;;;;;1.23;1.03;;;10.00;99.90;;;;;;6184881;23;20188;-92
2022/12/28 12:39:35;;;;;;;0.87;0.87;;;10.00;99.90;;;;;;6212015;23;20244;-87
2022/12/28 12:42:18;;;;;;;1.00;0.93;;;10.00;99.90;;;;;;6213581;23;20320;-86
2022/12/28 12:44:55;;;;;;;0.80;0.80;;;10.00;99.90;;;;;;6215536;23;20197;-85
2022/12/28 12:47:51;;;;;;;1.10;1.00;;;10.00;99.90;;;;;;6213945;23;20192;-88
2022/12/28 12:50:40;;;;;;;1.60;1.50;;;10.00;99.90;;;;;;6186477;23;20263;-88
2022/12/28 12:53:15;;;;;;;0.57;0.57;;;10.00;99.90;;;;;;6211887;23;20271;-87
2022/12/28 12:56:02;;;;;;;1.30;1.20;;;10.00;99.90;;;;;;6211560;23;20202;-86
2022/12/28 12:58:46;;;;;;;1.70;1.53;;;10.00;99.90;;;;;;6211220;23;20202;-87
2022/12/28 13:01:35;;;;;;;0.93;0.93;;;9.90;99.90;;;;;;6211545;23;20201;-88
2022/12/28 13:04:17;;;;;;;0.97;0.87;;;9.90;99.90;;;;;;6211444;23;20190;-88
2022/12/28 13:06:42;;;;;;;2.03;1.40;;;9.80;99.90;;;;;;6212350;23;20185;-90
2022/12/28 13:09:16;;;;;;;3.73;1.77;;;9.80;99.90;;;;;;6185748;23;20253;-87
2022/12/28 13:11:42;;;;;;;1.47;1.37;;;9.80;99.90;;;;;;6185332;23;20206;-93
2022/12/28 13:14:19;;;;;;;2.53;1.57;;;9.80;99.90;;;;;;6211284;23;20522;-87
2022/12/28 13:16:54;;;;;;;3.13;2.40;;;9.80;99.90;;;;;;6211701;23;20194;-89
2022/12/28 13:19:26;;;;;;;0.70;0.63;;;9.70;99.90;;;;;;6211642;23;20201;-88
2022/12/28 13:21:52;;;;;;;4.07;3.27;;;9.70;99.90;;;;;;6184884;23;20181;-89
2022/12/28 13:24:21;;;;;;;10.27;6.13;;;9.70;99.90;;;;;;6211295;23;20154;-90
2022/12/28 13:26:47;;;;;;;7.73;4.80;;;9.60;99.90;;;;;;6211664;23;20522;-89
2022/12/28 13:29:18;;;;;;;5.27;4.37;;;9.60;99.90;;;;;;6184259;23;20197;-90
2022/12/28 13:31:55;;;;;;;3.50;3.13;;;9.60;99.90;;;;;;6184481;23;20628;-89
2022/12/28 13:34:34;;;;;;;3.17;2.17;;;9.60;99.90;;;;;;6210481;23;20186;-92
2022/12/28 13:37:14;;;;;;;1.40;1.00;;;9.60;99.90;;;;;;6209880;23;20193;-88
2022/12/28 13:39:43;;;;;;;1.57;1.47;;;9.60;99.90;;;;;;6209336;23;20196;-89
2022/12/28 13:42:53;;;;;;;3.17;2.13;;;9.60;99.90;;;;;;6184098;23;20181;-89
2022/12/28 13:45:21;;;;;;;1.57;1.47;;;9.60;99.90;;;;;;6036154;23;20231;-88
2022/12/28 13:47:51;;;;;;;3.93;2.07;;;9.60;99.90;;;;;;6060426;23;20325;-89